createdAt,value
2016-10-11T00:00:03.362Z,930.66
2016-10-11T00:00:20.570Z,930.66
2016-10-11T00:00:38.946Z,930.71
2016-10-11T00:00:56.158Z,930.69
2016-10-11T00:01:13.361Z,930.73
2016-10-11T00:01:30.574Z,930.72
2016-10-11T00:01:48.337Z,930.72
2016-10-11T00:02:05.541Z,930.7
2016-10-11T00:02:22.759Z,930.68
2016-10-11T00:02:40.000Z,930.71
2016-10-11T00:02:57.193Z,930.7
2016-10-11T00:03:14.415Z,930.63
2016-10-11T00:03:31.782Z,930.68
2016-10-11T00:03:51.892Z,930.7
2016-10-11T00:04:10.211Z,930.72
2016-10-11T00:04:27.413Z,930.74
2016-10-11T00:04:44.610Z,930.67
2016-10-11T00:05:01.826Z,930.65
2016-10-11T00:05:19.012Z,930.71
2016-10-11T00:05:36.221Z,930.75
2016-10-11T00:05:53.388Z,930.66
2016-10-11T00:06:10.587Z,930.72
2016-10-11T00:06:27.793Z,930.69
2016-10-11T00:06:44.981Z,930.7
2016-10-11T00:07:02.162Z,930.72
2016-10-11T00:07:19.379Z,930.73
2016-10-11T00:07:51.562Z,930.75
2016-10-11T00:08:08.885Z,930.74
2016-10-11T00:08:28.521Z,930.74
2016-10-11T00:08:45.749Z,930.74
2016-10-11T00:09:02.976Z,930.73
2016-10-11T00:09:20.191Z,930.77
2016-10-11T00:09:37.390Z,930.8
2016-10-11T00:09:54.592Z,930.67
2016-10-11T00:10:11.799Z,930.73
2016-10-11T00:10:29.021Z,930.76
2016-10-11T00:10:46.229Z,930.73
2016-10-11T00:11:03.445Z,930.77
2016-10-11T00:11:20.662Z,930.76
2016-10-11T00:11:37.966Z,930.76
2016-10-11T00:11:55.169Z,930.73
2016-10-11T00:12:12.351Z,930.72
2016-10-11T00:12:29.552Z,930.69
2016-10-11T00:12:46.772Z,930.73
2016-10-11T00:13:03.971Z,930.66
2016-10-11T00:13:21.150Z,930.66
2016-10-11T00:13:38.349Z,930.7
2016-10-11T00:13:55.537Z,930.72
2016-10-11T00:14:12.723Z,930.73
2016-10-11T00:14:29.909Z,930.71
2016-10-11T00:14:47.086Z,930.75
2016-10-11T00:15:04.278Z,930.74
2016-10-11T00:15:21.497Z,930.72
2016-10-11T00:15:38.725Z,930.71
2016-10-11T00:15:55.905Z,930.74
2016-10-11T00:16:13.077Z,930.69
2016-10-11T00:16:30.280Z,930.7
2016-10-11T00:16:48.049Z,930.7
2016-10-11T00:17:05.256Z,930.71
2016-10-11T00:17:22.444Z,930.7
2016-10-11T00:17:39.606Z,930.72
2016-10-11T00:17:56.799Z,930.71
2016-10-11T00:18:14.011Z,930.67
2016-10-11T00:18:31.220Z,930.68
2016-10-11T00:18:48.411Z,930.72
2016-10-11T00:19:05.640Z,930.67
2016-10-11T00:19:22.829Z,930.69
2016-10-11T00:19:40.045Z,930.64
2016-10-11T00:19:57.272Z,930.62
2016-10-11T00:20:14.457Z,930.62
2016-10-11T00:20:31.639Z,930.69
2016-10-11T00:20:48.847Z,930.68
2016-10-11T00:21:06.052Z,930.68
2016-10-11T00:21:23.241Z,930.62
2016-10-11T00:21:40.444Z,930.65
2016-10-11T00:21:57.642Z,930.68
2016-10-11T00:22:14.867Z,930.68
2016-10-11T00:22:32.076Z,930.67
2016-10-11T00:22:49.267Z,930.68
2016-10-11T00:23:06.461Z,930.66
2016-10-11T00:23:23.665Z,930.57
2016-10-11T00:23:40.859Z,930.65
2016-10-11T00:23:58.709Z,930.62
2016-10-11T00:24:15.931Z,930.63
2016-10-11T00:24:33.139Z,930.58
2016-10-11T00:24:50.333Z,930.63
2016-10-11T00:25:07.515Z,930.63
2016-10-11T00:25:24.723Z,930.64
2016-10-11T00:25:41.943Z,930.63
2016-10-11T00:25:59.172Z,930.64
2016-10-11T00:26:16.378Z,930.63
2016-10-11T00:26:33.586Z,930.62
2016-10-11T00:26:50.774Z,930.57
2016-10-11T00:27:07.974Z,930.63
2016-10-11T00:27:25.155Z,930.54
2016-10-11T00:27:42.339Z,930.59
2016-10-11T00:27:59.541Z,930.56
2016-10-11T00:28:16.741Z,930.59
2016-10-11T00:28:33.930Z,930.59
2016-10-11T00:28:51.159Z,930.62
2016-10-11T00:29:08.368Z,930.58
2016-10-11T00:29:25.566Z,930.55
2016-10-11T00:29:42.827Z,930.55
2016-10-11T00:30:00.037Z,930.59
2016-10-11T00:30:18.005Z,930.61
2016-10-11T00:30:35.206Z,930.63
2016-10-11T00:30:52.399Z,930.58
2016-10-11T00:31:09.602Z,930.57
2016-10-11T00:31:26.796Z,930.55
2016-10-11T00:31:43.969Z,930.52
2016-10-11T00:32:01.154Z,930.56
2016-10-11T00:32:18.373Z,930.49
2016-10-11T00:32:35.572Z,930.53
2016-10-11T00:32:52.748Z,930.54
2016-10-11T00:33:09.944Z,930.46
2016-10-11T00:33:27.143Z,930.6
2016-10-11T00:33:44.345Z,930.53
2016-10-11T00:34:01.544Z,930.56
2016-10-11T00:34:18.752Z,930.54
2016-10-11T00:34:35.962Z,930.54
2016-10-11T00:34:53.137Z,930.38
2016-10-11T00:35:10.337Z,930.55
2016-10-11T00:35:27.519Z,930.54
2016-10-11T00:35:44.828Z,930.56
2016-10-11T00:36:02.051Z,930.52
2016-10-11T00:36:19.231Z,930.52
2016-10-11T00:36:36.471Z,930.55
2016-10-11T00:36:53.660Z,930.5
2016-10-11T00:37:10.857Z,930.54
2016-10-11T00:37:28.057Z,930.49
2016-10-11T00:37:45.275Z,930.51
2016-10-11T00:38:02.495Z,930.56
2016-10-11T00:38:19.845Z,930.53
2016-10-11T00:38:37.022Z,930.59
2016-10-11T00:38:54.232Z,930.52
2016-10-11T00:39:11.448Z,930.54
2016-10-11T00:39:28.851Z,930.54
2016-10-11T00:39:48.838Z,930.53
2016-10-11T00:40:06.045Z,930.55
2016-10-11T00:40:23.217Z,930.53
2016-10-11T00:40:40.405Z,930.52
2016-10-11T00:40:57.590Z,930.53
2016-10-11T00:41:15.366Z,930.47
2016-10-11T00:41:32.581Z,930.51
2016-10-11T00:41:49.771Z,930.53
2016-10-11T00:42:06.941Z,930.5
2016-10-11T00:42:24.135Z,930.52
2016-10-11T00:42:41.339Z,930.52
2016-10-11T00:42:58.534Z,930.5
2016-10-11T00:43:15.750Z,930.56
2016-10-11T00:43:32.941Z,930.45
2016-10-11T00:43:50.161Z,930.47
2016-10-11T00:44:07.358Z,930.55
2016-10-11T00:44:24.548Z,930.56
2016-10-11T00:44:41.740Z,930.53
2016-10-11T00:44:58.912Z,930.52
2016-10-11T00:45:16.114Z,930.56
2016-10-11T00:45:33.329Z,930.58
2016-10-11T00:45:50.538Z,930.58
2016-10-11T00:46:07.736Z,930.57
2016-10-11T00:46:25.487Z,930.55
2016-10-11T00:46:42.671Z,930.55
2016-10-11T00:47:00.275Z,930.56
2016-10-11T00:47:18.857Z,930.58
2016-10-11T00:47:36.062Z,930.56
2016-10-11T00:47:53.310Z,930.55
2016-10-11T00:48:10.504Z,930.56
2016-10-11T00:48:27.695Z,930.57
2016-10-11T00:48:44.870Z,930.6
2016-10-11T00:49:02.059Z,930.59
2016-10-11T00:49:19.243Z,930.58
2016-10-11T00:49:36.475Z,930.51
2016-10-11T00:49:53.692Z,930.56
2016-10-11T00:50:10.951Z,930.56
2016-10-11T00:50:28.706Z,930.57
2016-10-11T00:50:45.882Z,930.54
2016-10-11T00:51:03.103Z,930.62
2016-10-11T00:51:20.277Z,930.5
2016-10-11T00:51:37.579Z,930.54
2016-10-11T00:51:54.745Z,930.54
2016-10-11T00:52:11.968Z,930.58
2016-10-11T00:52:29.195Z,930.56
2016-10-11T00:52:46.404Z,930.55
2016-10-11T00:53:03.633Z,930.52
2016-10-11T00:53:20.841Z,930.58
2016-10-11T00:53:38.023Z,930.57
2016-10-11T00:53:55.223Z,930.54
2016-10-11T00:54:12.415Z,930.55
2016-10-11T00:54:29.609Z,930.54
2016-10-11T00:54:46.810Z,930.54
2016-10-11T00:55:03.996Z,930.56
2016-10-11T00:55:21.209Z,930.52
2016-10-11T00:55:38.421Z,930.56
2016-10-11T00:55:55.642Z,930.57
2016-10-11T00:56:12.827Z,930.54
2016-10-11T00:56:30.023Z,930.59
2016-10-11T00:56:47.359Z,930.56
2016-10-11T00:57:06.398Z,930.59
2016-10-11T00:57:23.602Z,930.57
2016-10-11T00:57:40.807Z,930.59
2016-10-11T00:57:58.012Z,930.58
2016-10-11T00:58:15.206Z,930.59
2016-10-11T00:58:32.392Z,930.54
2016-10-11T00:58:49.582Z,930.66
2016-10-11T00:59:06.770Z,930.59
2016-10-11T00:59:23.965Z,930.64
2016-10-11T00:59:41.150Z,930.64
2016-10-11T00:59:58.352Z,930.61
2016-10-11T01:00:15.565Z,930.55
2016-10-11T01:00:32.744Z,930.62
2016-10-11T01:00:49.964Z,930.6
2016-10-11T01:01:07.171Z,930.54
2016-10-11T01:01:24.547Z,930.64
2016-10-11T01:01:41.843Z,930.61
2016-10-11T01:01:59.063Z,930.58
2016-10-11T01:02:16.257Z,930.57
2016-10-11T01:02:33.471Z,930.67
2016-10-11T01:02:50.674Z,930.68
2016-10-11T01:03:07.861Z,930.63
2016-10-11T01:03:25.020Z,930.62
2016-10-11T01:03:42.267Z,930.65
2016-10-11T01:04:01.004Z,930.6
2016-10-11T01:04:18.339Z,930.67
2016-10-11T01:04:35.537Z,930.65
2016-10-11T01:04:52.726Z,930.62
2016-10-11T01:05:09.920Z,930.67
2016-10-11T01:05:27.104Z,930.63
2016-10-11T01:05:44.311Z,930.64
2016-10-11T01:06:01.504Z,930.61
2016-10-11T01:06:18.698Z,930.61
2016-10-11T01:06:35.878Z,930.62
2016-10-11T01:06:53.072Z,930.63
2016-10-11T01:07:10.277Z,930.6
2016-10-11T01:07:27.470Z,930.59
2016-10-11T01:07:44.678Z,930.59
2016-10-11T01:08:01.873Z,930.59
2016-10-11T01:08:19.079Z,930.63
2016-10-11T01:08:36.279Z,930.56
2016-10-11T01:08:53.471Z,930.62
2016-10-11T01:09:10.662Z,930.63
2016-10-11T01:09:27.875Z,930.56
2016-10-11T01:09:45.069Z,930.58
2016-10-11T01:10:02.256Z,930.57
2016-10-11T01:10:19.465Z,930.58
2016-10-11T01:10:36.671Z,930.55
2016-10-11T01:10:53.875Z,930.57
2016-10-11T01:11:11.075Z,930.58
2016-10-11T01:11:28.266Z,930.57
2016-10-11T01:11:45.509Z,930.56
2016-10-11T01:12:02.765Z,930.57
2016-10-11T01:12:19.951Z,930.56
2016-10-11T01:12:37.153Z,930.58
2016-10-11T01:12:54.337Z,930.55
2016-10-11T01:13:11.513Z,930.54
2016-10-11T01:13:28.748Z,930.52
2016-10-11T01:13:46.028Z,930.56
2016-10-11T01:14:03.213Z,930.52
2016-10-11T01:14:20.393Z,930.5
2016-10-11T01:14:37.588Z,930.56
2016-10-11T01:14:54.787Z,930.56
2016-10-11T01:15:11.984Z,930.51
2016-10-11T01:15:29.201Z,930.5
2016-10-11T01:15:46.417Z,930.51
2016-10-11T01:16:03.607Z,930.52
2016-10-11T01:16:20.817Z,930.53
2016-10-11T01:16:38.115Z,930.57
2016-10-11T01:16:55.331Z,930.54
2016-10-11T01:17:12.572Z,930.48
2016-10-11T01:17:29.796Z,930.48
2016-10-11T01:17:46.978Z,930.58
2016-10-11T01:18:04.172Z,930.57
2016-10-11T01:18:21.391Z,930.56
2016-10-11T01:18:38.639Z,930.56
2016-10-11T01:18:55.834Z,930.56
2016-10-11T01:19:13.111Z,930.53
2016-10-11T01:19:30.349Z,930.56
2016-10-11T01:19:47.543Z,930.58
2016-10-11T01:20:04.725Z,930.45
2016-10-11T01:20:21.926Z,930.55
2016-10-11T01:20:39.115Z,930.5
2016-10-11T01:20:56.307Z,930.54
2016-10-11T01:21:13.547Z,930.56
2016-10-11T01:21:30.745Z,930.51
2016-10-11T01:21:47.933Z,930.5
2016-10-11T01:22:05.116Z,930.61
2016-10-11T01:22:22.299Z,930.42
2016-10-11T01:22:39.487Z,930.52
2016-10-11T01:22:56.702Z,930.47
2016-10-11T01:23:13.915Z,930.5
2016-10-11T01:23:31.125Z,930.5
2016-10-11T01:23:48.310Z,930.48
2016-10-11T01:24:05.511Z,930.51
2016-10-11T01:24:22.705Z,930.55
2016-10-11T01:24:39.911Z,930.55
2016-10-11T01:24:57.098Z,930.56
2016-10-11T01:25:14.343Z,930.57
2016-10-11T01:25:31.546Z,930.53
2016-10-11T01:25:48.775Z,930.56
2016-10-11T01:26:06.497Z,930.54
2016-10-11T01:26:23.801Z,930.56
2016-10-11T01:26:41.226Z,930.56
2016-10-11T01:26:58.528Z,930.58
2016-10-11T01:27:15.757Z,930.55
2016-10-11T01:27:33.012Z,930.55
2016-10-11T01:27:50.239Z,930.53
2016-10-11T01:28:07.433Z,930.58
2016-10-11T01:28:24.608Z,930.56
2016-10-11T01:28:41.799Z,930.54
2016-10-11T01:28:59.029Z,930.58
2016-10-11T01:29:16.219Z,930.58
2016-10-11T01:29:33.470Z,930.6
2016-10-11T01:29:50.674Z,930.57
2016-10-11T01:30:07.869Z,930.57
2016-10-11T01:30:25.064Z,930.61
2016-10-11T01:30:42.255Z,930.59
2016-10-11T01:30:59.443Z,930.56
2016-10-11T01:31:16.963Z,930.55
2016-10-11T01:31:34.173Z,930.51
2016-10-11T01:31:51.393Z,930.57
2016-10-11T01:32:08.598Z,930.6
2016-10-11T01:32:25.805Z,930.6
2016-10-11T01:32:43.006Z,930.58
2016-10-11T01:33:00.235Z,930.57
2016-10-11T01:33:17.513Z,930.58
2016-10-11T01:33:34.745Z,930.51
2016-10-11T01:33:51.983Z,930.56
2016-10-11T01:34:09.190Z,930.58
2016-10-11T01:34:26.398Z,930.54
2016-10-11T01:34:43.568Z,930.49
2016-10-11T01:35:00.765Z,930.54
2016-10-11T01:35:17.952Z,930.53
2016-10-11T01:35:35.993Z,930.58
2016-10-11T01:35:53.349Z,930.58
2016-10-11T01:36:10.567Z,930.47
2016-10-11T01:36:27.818Z,930.52
2016-10-11T01:36:45.187Z,930.5
2016-10-11T01:37:03.046Z,930.57
2016-10-11T01:37:20.321Z,930.52
2016-10-11T01:37:37.526Z,930.55
2016-10-11T01:37:54.769Z,930.53
2016-10-11T01:38:11.947Z,930.57
2016-10-11T01:38:29.164Z,930.57
2016-10-11T01:38:46.383Z,930.55
2016-10-11T01:39:03.588Z,930.55
2016-10-11T01:39:20.762Z,930.54
2016-10-11T01:39:37.947Z,930.5
2016-10-11T01:39:55.128Z,930.5
2016-10-11T01:40:12.346Z,930.52
2016-10-11T01:40:29.552Z,930.5
2016-10-11T01:40:46.754Z,930.5
2016-10-11T01:41:04.061Z,930.53
2016-10-11T01:41:21.376Z,930.46
2016-10-11T01:41:38.781Z,930.53
2016-10-11T01:41:55.982Z,930.48
2016-10-11T01:42:13.169Z,930.5
2016-10-11T01:42:30.370Z,930.52
2016-10-11T01:42:47.565Z,930.55
2016-10-11T01:43:04.730Z,930.54
2016-10-11T01:43:21.930Z,930.47
2016-10-11T01:43:39.109Z,930.49
2016-10-11T01:43:56.311Z,930.53
2016-10-11T01:44:13.502Z,930.45
2016-10-11T01:44:30.713Z,930.42
2016-10-11T01:44:47.911Z,930.41
2016-10-11T01:45:05.090Z,930.49
2016-10-11T01:45:22.311Z,930.46
2016-10-11T01:45:39.484Z,930.5
2016-10-11T01:45:56.701Z,930.48
2016-10-11T01:46:13.922Z,930.45
2016-10-11T01:46:31.128Z,930.46
2016-10-11T01:46:48.320Z,930.47
2016-10-11T01:47:05.557Z,930.4
2016-10-11T01:47:22.747Z,930.46
2016-10-11T01:47:54.922Z,930.42
2016-10-11T01:48:12.113Z,930.44
2016-10-11T01:48:29.378Z,930.42
2016-10-11T01:48:46.644Z,930.38
2016-10-11T01:49:03.824Z,930.41
2016-10-11T01:49:21.083Z,930.42
2016-10-11T01:49:38.305Z,930.34
2016-10-11T01:49:55.498Z,930.4
2016-10-11T01:50:12.749Z,930.45
2016-10-11T01:50:29.923Z,930.41
2016-10-11T01:50:47.123Z,930.4
2016-10-11T01:51:04.315Z,930.4
2016-10-11T01:51:21.916Z,930.36
2016-10-11T01:51:39.105Z,930.34
2016-10-11T01:51:56.299Z,930.39
2016-10-11T01:52:13.484Z,930.37
2016-10-11T01:52:30.687Z,930.32
2016-10-11T01:52:47.874Z,930.38
2016-10-11T01:53:05.050Z,930.4
2016-10-11T01:53:22.227Z,930.38
2016-10-11T01:53:39.403Z,930.45
2016-10-11T01:53:56.592Z,930.42
2016-10-11T01:54:13.782Z,930.4
2016-10-11T01:54:31.020Z,930.41
2016-10-11T01:54:48.259Z,930.35
2016-10-11T01:55:05.726Z,930.34
2016-10-11T01:55:23.002Z,930.39
2016-10-11T01:55:40.212Z,930.31
2016-10-11T01:55:57.932Z,930.38
2016-10-11T01:56:15.125Z,930.31
2016-10-11T01:56:32.325Z,930.33
2016-10-11T01:56:49.515Z,930.39
2016-10-11T01:57:06.707Z,930.42
2016-10-11T01:57:24.481Z,930.37
2016-10-11T01:57:41.683Z,930.38
2016-10-11T01:57:58.868Z,930.36
2016-10-11T01:58:16.036Z,930.4
2016-10-11T01:58:33.222Z,930.4
2016-10-11T01:58:50.411Z,930.41
2016-10-11T01:59:07.624Z,930.36
2016-10-11T01:59:24.851Z,930.35
2016-10-11T01:59:42.060Z,930.35
2016-10-11T01:59:59.258Z,930.35
2016-10-11T02:00:16.452Z,930.36
2016-10-11T02:00:33.627Z,930.3
2016-10-11T02:00:50.823Z,930.28
2016-10-11T02:01:08.018Z,930.3
2016-10-11T02:01:25.198Z,930.34
2016-10-11T02:01:42.380Z,930.29
2016-10-11T02:01:59.597Z,930.32
2016-10-11T02:02:16.770Z,930.34
2016-10-11T02:02:33.963Z,930.29
2016-10-11T02:02:51.140Z,930.27
2016-10-11T02:03:08.325Z,930.34
2016-10-11T02:03:25.528Z,930.31
2016-10-11T02:03:42.719Z,930.35
2016-10-11T02:03:59.931Z,930.31
2016-10-11T02:04:17.117Z,930.32
2016-10-11T02:04:34.307Z,930.27
2016-10-11T02:04:51.481Z,930.29
2016-10-11T02:05:08.685Z,930.21
2016-10-11T02:05:25.888Z,930.27
2016-10-11T02:05:43.090Z,930.33
2016-10-11T02:06:00.275Z,930.24
2016-10-11T02:06:17.462Z,930.27
2016-10-11T02:06:34.653Z,930.32
2016-10-11T02:06:51.872Z,930.28
2016-10-11T02:07:09.052Z,930.29
2016-10-11T02:07:26.268Z,930.3
2016-10-11T02:07:43.463Z,930.28
2016-10-11T02:08:00.642Z,930.28
2016-10-11T02:08:17.834Z,930.27
2016-10-11T02:08:35.050Z,930.28
2016-10-11T02:08:52.258Z,930.27
2016-10-11T02:09:09.462Z,930.25
2016-10-11T02:09:26.665Z,930.26
2016-10-11T02:09:43.836Z,930.25
2016-10-11T02:10:01.025Z,930.24
2016-10-11T02:10:18.209Z,930.24
2016-10-11T02:10:35.416Z,930.24
2016-10-11T02:10:52.625Z,930.24
2016-10-11T02:11:09.816Z,930.22
2016-10-11T02:11:26.996Z,930.23
2016-10-11T02:11:44.177Z,930.23
2016-10-11T02:12:01.374Z,930.25
2016-10-11T02:12:18.558Z,930.2
2016-10-11T02:12:35.755Z,930.19
2016-10-11T02:12:52.951Z,930.21
2016-10-11T02:13:10.152Z,930.21
2016-10-11T02:13:27.361Z,930.15
2016-10-11T02:13:44.551Z,930.19
2016-10-11T02:14:01.740Z,930.16
2016-10-11T02:14:18.930Z,930.18
2016-10-11T02:14:36.116Z,930.14
2016-10-11T02:14:53.291Z,930.15
2016-10-11T02:15:10.514Z,930.14
2016-10-11T02:15:27.737Z,930.12
2016-10-11T02:15:44.942Z,930.13
2016-10-11T02:16:02.151Z,930.1
2016-10-11T02:16:19.353Z,930.12
2016-10-11T02:16:36.559Z,930.09
2016-10-11T02:16:53.754Z,930.08
2016-10-11T02:17:10.966Z,930.07
2016-10-11T02:17:28.157Z,930.08
2016-10-11T02:17:45.368Z,930.1
2016-10-11T02:18:02.568Z,930.09
2016-10-11T02:18:19.765Z,930.08
2016-10-11T02:18:36.964Z,930.13
2016-10-11T02:18:54.176Z,930.12
2016-10-11T02:19:11.374Z,930.13
2016-10-11T02:19:28.560Z,930.12
2016-10-11T02:19:45.768Z,930.09
2016-10-11T02:20:02.983Z,930.12
2016-10-11T02:20:20.166Z,930.15
2016-10-11T02:20:37.348Z,930.09
2016-10-11T02:20:54.552Z,930.12
2016-10-11T02:21:11.769Z,930.09
2016-10-11T02:21:28.958Z,930.04
2016-10-11T02:21:46.167Z,930.07
2016-10-11T02:22:03.370Z,930.09
2016-10-11T02:22:20.562Z,930.08
2016-10-11T02:22:37.766Z,930.07
2016-10-11T02:22:54.968Z,930.07
2016-10-11T02:23:12.146Z,930.09
2016-10-11T02:23:29.344Z,930.02
2016-10-11T02:23:46.558Z,930.07
2016-10-11T02:24:03.759Z,930.07
2016-10-11T02:24:20.935Z,930.07
2016-10-11T02:24:38.137Z,930.05
2016-10-11T02:24:55.302Z,930.03
2016-10-11T02:25:12.487Z,930.03
2016-10-11T02:25:29.696Z,930
2016-10-11T02:25:47.474Z,930.03
2016-10-11T02:26:04.700Z,930.06
2016-10-11T02:26:21.929Z,929.99
2016-10-11T02:26:39.188Z,930.03
2016-10-11T02:26:56.383Z,930.01
2016-10-11T02:27:13.621Z,930.06
2016-10-11T02:27:30.783Z,930.05
2016-10-11T02:27:47.970Z,930.06
2016-10-11T02:28:05.177Z,930.02
2016-10-11T02:28:22.929Z,930.03
2016-10-11T02:28:40.119Z,930.04
2016-10-11T02:28:57.338Z,929.99
2016-10-11T02:29:14.533Z,929.99
2016-10-11T02:29:31.734Z,929.97
2016-10-11T02:29:48.927Z,929.94
2016-10-11T02:30:06.122Z,929.96
2016-10-11T02:30:23.318Z,929.95
2016-10-11T02:30:40.511Z,929.95
2016-10-11T02:30:57.714Z,929.89
2016-10-11T02:31:14.932Z,929.93
2016-10-11T02:31:32.123Z,929.86
2016-10-11T02:31:49.360Z,929.9
2016-10-11T02:32:06.559Z,929.89
2016-10-11T02:32:23.772Z,929.89
2016-10-11T02:32:40.982Z,929.82
2016-10-11T02:32:58.157Z,929.81
2016-10-11T02:33:15.372Z,929.84
2016-10-11T02:33:32.558Z,929.83
2016-10-11T02:33:49.735Z,929.8
2016-10-11T02:34:06.966Z,929.75
2016-10-11T02:34:24.162Z,929.75
2016-10-11T02:34:41.388Z,929.77
2016-10-11T02:34:58.584Z,929.74
2016-10-11T02:35:15.759Z,929.75
2016-10-11T02:35:33.722Z,929.72
2016-10-11T02:35:50.897Z,929.7
2016-10-11T02:36:08.383Z,929.69
2016-10-11T02:36:25.573Z,929.69
2016-10-11T02:36:42.799Z,929.68
2016-10-11T02:36:59.997Z,929.69
2016-10-11T02:37:17.220Z,929.66
2016-10-11T02:37:34.430Z,929.58
2016-10-11T02:37:51.644Z,929.63
2016-10-11T02:38:08.837Z,929.61
2016-10-11T02:38:26.026Z,929.61
2016-10-11T02:38:43.233Z,929.55
2016-10-11T02:39:00.424Z,929.6
2016-10-11T02:39:17.628Z,929.6
2016-10-11T02:39:34.858Z,929.55
2016-10-11T02:39:52.614Z,929.56
2016-10-11T02:40:09.831Z,929.58
2016-10-11T02:40:27.042Z,929.59
2016-10-11T02:40:44.253Z,929.58
2016-10-11T02:41:01.435Z,929.58
2016-10-11T02:41:18.656Z,929.56
2016-10-11T02:41:35.812Z,929.54
2016-10-11T02:41:53.016Z,929.52
2016-10-11T02:42:10.206Z,929.54
2016-10-11T02:42:27.415Z,929.5
2016-10-11T02:42:44.609Z,929.54
2016-10-11T02:43:01.828Z,929.56
2016-10-11T02:43:19.586Z,929.51
2016-10-11T02:43:36.767Z,929.49
2016-10-11T02:43:53.977Z,929.53
2016-10-11T02:44:11.179Z,929.55
2016-10-11T02:44:28.385Z,929.49
2016-10-11T02:44:45.603Z,929.46
2016-10-11T02:45:02.789Z,929.47
2016-10-11T02:45:19.980Z,929.49
2016-10-11T02:45:37.163Z,929.52
2016-10-11T02:45:54.354Z,929.48
2016-10-11T02:46:11.574Z,929.53
2016-10-11T02:46:28.761Z,929.51
2016-10-11T02:46:45.986Z,929.47
2016-10-11T02:47:03.180Z,929.46
2016-10-11T02:47:20.353Z,929.51
2016-10-11T02:47:37.563Z,929.49
2016-10-11T02:47:54.758Z,929.46
2016-10-11T02:48:11.959Z,929.45
2016-10-11T02:48:29.137Z,929.49
2016-10-11T02:48:46.348Z,929.46
2016-10-11T02:49:03.534Z,929.43
2016-10-11T02:49:20.751Z,929.36
2016-10-11T02:49:37.960Z,929.46
2016-10-11T02:49:55.714Z,929.39
2016-10-11T02:50:12.918Z,929.37
2016-10-11T02:50:30.133Z,929.4
2016-10-11T02:50:47.322Z,929.42
2016-10-11T02:51:04.590Z,929.38
2016-10-11T02:51:21.791Z,929.39
2016-10-11T02:51:38.943Z,929.41
2016-10-11T02:51:56.173Z,929.41
2016-10-11T02:52:13.374Z,929.42
2016-10-11T02:52:30.572Z,929.37
2016-10-11T02:52:47.755Z,929.41
2016-10-11T02:53:04.956Z,929.4
2016-10-11T02:53:22.134Z,929.39
2016-10-11T02:53:39.320Z,929.39
2016-10-11T02:53:56.520Z,929.38
2016-10-11T02:54:13.688Z,929.36
2016-10-11T02:54:30.881Z,929.33
2016-10-11T02:54:48.069Z,929.38
2016-10-11T02:55:05.245Z,929.41
2016-10-11T02:55:22.452Z,929.39
2016-10-11T02:55:39.645Z,929.39
2016-10-11T02:55:56.845Z,929.4
2016-10-11T02:56:14.049Z,929.36
2016-10-11T02:56:31.235Z,929.4
2016-10-11T02:56:48.435Z,929.38
2016-10-11T02:57:05.623Z,929.4
2016-10-11T02:57:22.797Z,929.38
2016-10-11T02:57:40.017Z,929.33
2016-10-11T02:57:57.211Z,929.33
2016-10-11T02:58:14.390Z,929.36
2016-10-11T02:58:31.606Z,929.37
2016-10-11T02:58:48.807Z,929.35
2016-10-11T02:59:06.022Z,929.32
2016-10-11T02:59:23.227Z,929.38
2016-10-11T02:59:40.441Z,929.36
2016-10-11T02:59:57.638Z,929.33
2016-10-11T03:00:14.834Z,929.35
2016-10-11T03:00:32.025Z,929.34
2016-10-11T03:00:49.234Z,929.39
2016-10-11T03:01:06.523Z,929.33
2016-10-11T03:01:23.740Z,929.36
2016-10-11T03:01:40.944Z,929.35
2016-10-11T03:01:58.132Z,929.35
2016-10-11T03:02:15.885Z,929.37
2016-10-11T03:02:33.089Z,929.31
2016-10-11T03:02:50.254Z,929.32
2016-10-11T03:03:07.459Z,929.34
2016-10-11T03:03:24.656Z,929.34
2016-10-11T03:03:41.861Z,929.31
2016-10-11T03:03:59.075Z,929.33
2016-10-11T03:04:16.255Z,929.33
2016-10-11T03:04:33.780Z,929.38
2016-10-11T03:04:50.981Z,929.4
2016-10-11T03:05:08.716Z,929.36
2016-10-11T03:05:25.883Z,929.29
2016-10-11T03:05:43.079Z,929.33
2016-10-11T03:06:00.845Z,929.35
2016-10-11T03:06:18.039Z,929.36
2016-10-11T03:06:35.226Z,929.4
2016-10-11T03:06:52.445Z,929.37
2016-10-11T03:07:09.640Z,929.36
2016-10-11T03:07:26.868Z,929.37
2016-10-11T03:07:44.093Z,929.37
2016-10-11T03:08:01.267Z,929.38
2016-10-11T03:08:18.446Z,929.31
2016-10-11T03:08:35.656Z,929.31
2016-10-11T03:08:52.848Z,929.31
2016-10-11T03:09:10.043Z,929.28
2016-10-11T03:09:27.214Z,929.3
2016-10-11T03:09:44.431Z,929.28
2016-10-11T03:10:01.620Z,929.28
2016-10-11T03:10:18.831Z,929.29
2016-10-11T03:10:36.030Z,929.29
2016-10-11T03:10:53.235Z,929.3
2016-10-11T03:11:10.427Z,929.3
2016-10-11T03:11:27.633Z,929.31
2016-10-11T03:11:44.826Z,929.26
2016-10-11T03:12:02.005Z,929.29
2016-10-11T03:12:19.214Z,929.26
2016-10-11T03:12:36.417Z,929.28
2016-10-11T03:12:53.608Z,929.27
2016-10-11T03:13:10.794Z,929.27
2016-10-11T03:13:27.993Z,929.3
2016-10-11T03:13:45.205Z,929.29
2016-10-11T03:14:02.417Z,929.25
2016-10-11T03:14:19.621Z,929.27
2016-10-11T03:14:36.833Z,929.2
2016-10-11T03:14:54.048Z,929.22
2016-10-11T03:15:11.230Z,929.27
2016-10-11T03:15:28.419Z,929.21
2016-10-11T03:15:45.651Z,929.21
2016-10-11T03:16:02.853Z,929.21
2016-10-11T03:16:20.223Z,929.26
2016-10-11T03:16:37.423Z,929.22
2016-10-11T03:16:54.629Z,929.22
2016-10-11T03:17:11.836Z,929.23
2016-10-11T03:17:29.042Z,929.19
2016-10-11T03:17:46.245Z,929.22
2016-10-11T03:18:03.445Z,929.21
2016-10-11T03:18:20.661Z,929.18
2016-10-11T03:18:37.842Z,929.17
2016-10-11T03:18:55.049Z,929.18
2016-10-11T03:19:12.269Z,929.21
2016-10-11T03:19:30.028Z,929.17
2016-10-11T03:19:47.251Z,929.17
2016-10-11T03:20:04.467Z,929.14
2016-10-11T03:20:21.683Z,929.14
2016-10-11T03:20:38.861Z,929.13
2016-10-11T03:20:56.035Z,929.17
2016-10-11T03:21:13.223Z,929.09
2016-10-11T03:21:30.409Z,929.12
2016-10-11T03:21:47.586Z,929.11
2016-10-11T03:22:04.788Z,929.05
2016-10-11T03:22:21.967Z,929.08
2016-10-11T03:22:39.162Z,929.12
2016-10-11T03:22:56.347Z,929.1
2016-10-11T03:23:13.556Z,929.06
2016-10-11T03:23:30.753Z,929.09
2016-10-11T03:23:47.961Z,929.08
2016-10-11T03:24:05.124Z,929.07
2016-10-11T03:24:22.340Z,929.09
2016-10-11T03:24:39.550Z,929.09
2016-10-11T03:24:56.762Z,929.09
2016-10-11T03:25:13.954Z,929.1
2016-10-11T03:25:31.142Z,929.09
2016-10-11T03:25:48.329Z,929.05
2016-10-11T03:26:05.546Z,929.05
2016-10-11T03:26:22.764Z,929
2016-10-11T03:26:39.930Z,929.06
2016-10-11T03:26:57.143Z,929.03
2016-10-11T03:27:14.331Z,929
2016-10-11T03:27:31.560Z,929.07
2016-10-11T03:27:48.753Z,929.05
2016-10-11T03:28:05.942Z,929.05
2016-10-11T03:28:23.141Z,929.06
2016-10-11T03:28:40.359Z,929.03
2016-10-11T03:28:57.615Z,929.01
2016-10-11T03:29:14.800Z,928.98
2016-10-11T03:29:32.553Z,929.05
2016-10-11T03:29:49.739Z,929.04
2016-10-11T03:30:06.950Z,929.03
2016-10-11T03:30:24.649Z,929.01
2016-10-11T03:30:42.414Z,929.02
2016-10-11T03:30:59.618Z,928.99
2016-10-11T03:31:16.821Z,929
2016-10-11T03:31:34.010Z,929.02
2016-10-11T03:31:51.211Z,929.02
2016-10-11T03:32:08.435Z,928.99
2016-10-11T03:32:25.621Z,928.97
2016-10-11T03:32:42.813Z,928.96
2016-10-11T03:32:59.996Z,928.98
2016-10-11T03:33:17.203Z,928.99
2016-10-11T03:33:34.397Z,928.98
2016-10-11T03:33:52.707Z,928.97
2016-10-11T03:34:09.932Z,928.95
2016-10-11T03:34:27.150Z,928.95
2016-10-11T03:34:44.913Z,928.92
2016-10-11T03:35:02.078Z,928.92
2016-10-11T03:35:19.273Z,928.94
2016-10-11T03:35:36.509Z,928.91
2016-10-11T03:35:54.258Z,928.95
2016-10-11T03:36:11.583Z,928.93
2016-10-11T03:36:28.777Z,928.91